Time;durP1;ratioP1;P1;durP2;ratioP2;P2;SDS_P1;SDS_P2;PMS_P1;PMS_P2;Temp;Humidity;BMP_temperature;BMP_pressure;BME280_temperature;BME280_humidity;BME280_pressure;Samples;Min_cycle;Max_cycle;Signal;HPM_P1;HPM_P2
2022/04/12 00:01:22;;;;;;;4.73;4.13;;;;;;;12.58;62.22;101447.88;5019001;28;20209;-65
2022/04/12 00:03:48;;;;;;;7.93;4.93;;;;;;;10.94;50.81;101457.38;5018526;28;20249;-78
2022/04/12 00:06:13;;;;;;;9.27;4.57;;;;;;;8.01;55.02;101466.31;5019450;28;20450;-78
2022/04/12 00:08:38;;;;;;;6.10;4.80;;;;;;;6.37;61.55;101468.38;5019901;28;20250;-78
2022/04/12 00:11:04;;;;;;;6.20;4.40;;;;;;;7.03;60.95;101463.03;5020582;28;20178;-79
2022/04/12 00:13:29;;;;;;;6.70;4.90;;;;;;;7.31;60.08;101461.44;5021406;28;20727;-80
2022/04/12 00:15:55;;;;;;;7.13;5.20;;;;;;;7.72;60.00;101466.25;5022298;28;20552;-81
2022/04/12 00:21:05;;;;;;;6.10;4.20;;;;;;;7.19;58.89;101461.00;5020616;28;20460;-79
2022/04/12 00:23:30;;;;;;;6.47;4.50;;;;;;;7.14;60.66;101459.97;5018733;28;20418;-80
2022/04/12 00:25:55;;;;;;;6.07;5.40;;;;;;;7.47;60.15;101468.03;5019582;28;20190;-80
2022/04/12 00:28:21;;;;;;;6.43;5.17;;;;;;;6.73;60.66;101473.19;5019806;28;20175;-80
2022/04/12 00:30:46;;;;;;;10.13;4.47;;;;;;;6.36;61.76;101464.91;5019487;28;20487;-80
2022/04/12 00:33:11;;;;;;;8.87;4.63;;;;;;;6.34;62.80;101461.38;5019465;28;20439;-81
2022/04/12 00:35:37;;;;;;;4.90;4.43;;;;;;;6.97;60.84;101460.25;5019834;28;20177;-80
2022/04/12 00:38:13;;;;;;;7.57;5.17;;;;;;;6.91;62.06;101452.25;5018643;28;20635;-79
2022/04/12 00:40:39;;;;;;;6.73;5.30;;;;;;;6.65;61.91;101446.13;5019367;28;20325;-81
2022/04/12 00:43:04;;;;;;;6.97;4.97;;;;;;;6.03;61.98;101457.56;5018954;28;20437;-79
2022/04/12 00:45:29;;;;;;;7.97;4.77;;;;;;;6.64;62.29;101450.41;5019133;28;20171;-77
2022/04/12 00:47:55;;;;;;;11.17;5.40;;;;;;;6.33;62.36;101444.09;5019426;28;20175;-78
2022/04/12 00:50:20;;;;;;;8.43;5.63;;;;;;;6.32;63.11;101449.19;5019005;28;20494;-79
2022/04/12 00:52:49;;;;;;;10.63;5.37;;;;;;;6.76;61.67;101433.56;5018126;28;20198;-80
2022/04/12 00:55:15;;;;;;;5.40;4.70;;;;;;;6.96;60.96;101437.75;5018364;28;20163;-77
2022/04/12 00:57:41;;;;;;;6.20;4.77;;;;;;;6.70;61.78;101429.91;5022592;28;20409;-78
2022/04/12 01:00:08;;;;;;;7.10;5.20;;;;;;;7.28;61.25;101432.81;5022493;28;20457;-78
2022/04/12 01:02:34;;;;;;;6.73;5.03;;;;;;;7.22;60.57;101427.41;5022778;28;20473;-77
2022/04/12 01:05:00;;;;;;;5.23;4.73;;;;;;;6.43;62.19;101427.19;5022761;28;20418;-76
2022/04/12 01:07:26;;;;;;;8.27;5.20;;;;;;;7.21;60.45;101417.84;5022836;28;20497;-77
2022/04/12 01:09:52;;;;;;;5.40;4.83;;;;;;;6.85;61.16;101410.56;5022749;28;20503;-79
2022/04/12 01:12:21;;;;;;;5.00;4.50;;;;;;;6.62;62.26;101402.84;5022558;28;20167;-77
2022/04/12 01:14:46;;;;;;;5.43;4.43;;;;;;;5.69;63.37;101413.91;5022409;28;20501;-78
2022/04/12 01:17:12;;;;;;;6.10;5.00;;;;;;;6.11;62.68;101400.94;5022569;28;20834;-77
2022/04/12 01:19:37;;;;;;;7.80;4.77;;;;;;;6.29;63.03;101398.19;5022889;28;20209;-79
2022/04/12 01:22:09;;;;;;;7.70;5.80;;;;;;;6.17;62.30;101401.19;5022489;28;20186;-76
2022/04/12 01:24:34;;;;;;;6.30;5.07;;;;;;;7.09;61.02;101387.22;5021354;28;20168;-78
2022/04/12 01:27:00;;;;;;;8.83;4.90;;;;;;;6.62;61.25;101389.00;5022160;28;20416;-78
2022/04/12 01:29:25;;;;;;;6.10;5.10;;;;;;;6.88;60.62;101390.81;5022266;28;20422;-77
2022/04/12 01:31:51;;;;;;;21.63;5.70;;;;;;;6.83;61.17;101383.69;5021849;28;20206;-78
2022/04/12 01:34:16;;;;;;;6.13;5.20;;;;;;;7.02;60.79;101386.13;5022059;28;20246;-76
2022/04/12 01:36:42;;;;;;;5.20;4.70;;;;;;;6.49;62.16;101387.66;5021205;28;20489;-79
2022/04/12 01:39:07;;;;;;;6.67;5.40;;;;;;;7.01;60.24;101376.56;5021893;28;20226;-79
2022/04/12 01:41:32;;;;;;;7.43;5.10;;;;;;;6.84;60.32;101369.91;5021967;28;20245;-78
2022/04/12 01:43:58;;;;;;;7.20;5.43;;;;;;;6.74;60.47;101367.00;5022272;28;20155;-79
2022/04/12 01:46:23;;;;;;;5.70;5.10;;;;;;;7.07;60.18;101371.56;5021638;28;20427;-77
2022/04/12 01:48:49;;;;;;;10.67;5.60;;;;;;;6.29;61.29;101373.97;5021742;28;20171;-78
2022/04/12 01:51:15;;;;;;;7.40;5.23;;;;;;;7.33;60.31;101368.09;5022153;28;20552;-78
2022/04/12 01:53:40;;;;;;;5.07;4.57;;;;;;;6.36;61.89;101374.28;5021737;28;20174;-78
2022/04/12 01:56:06;;;;;;;8.60;5.40;;;;;;;6.56;61.03;101380.19;5021271;28;20431;-78
2022/04/12 01:58:32;;;;;;;8.93;5.27;;;;;;;6.85;60.88;101364.78;5021516;28;20170;-79
2022/04/12 02:00:58;;;;;;;9.27;5.00;;;;;;;5.68;63.04;101374.25;5021220;28;20210;-78
2022/04/12 02:03:24;;;;;;;5.77;5.00;;;;;;;6.20;62.29;101369.34;5021489;28;20733;-79
2022/04/12 02:05:49;;;;;;;8.00;5.67;;;;;;;6.14;62.56;101366.53;5021905;28;20406;-80
2022/04/12 02:08:14;;;;;;;8.77;5.17;;;;;;;6.26;62.89;101359.22;5021098;28;20282;-76
2022/04/12 02:10:40;;;;;;;6.93;5.10;;;;;;;6.66;62.02;101352.03;5020814;28;20480;-76
2022/04/12 02:13:05;;;;;;;5.40;4.80;;;;;;;6.48;62.12;101366.06;5021336;28;20443;-76
2022/04/12 02:15:31;;;;;;;5.93;4.70;;;;;;;6.79;61.13;101363.69;5021273;28;20262;-76
2022/04/12 02:17:56;;;;;;;10.83;4.97;;;;;;;6.72;60.89;101352.22;5021102;28;20175;-76
2022/04/12 02:20:22;;;;;;;7.40;4.90;;;;;;;6.20;61.42;101364.16;5021435;28;20449;-77
2022/04/12 02:22:47;;;;;;;9.40;5.33;;;;;;;5.95;62.84;101360.59;5020695;28;20171;-74
2022/04/12 02:25:12;;;;;;;9.40;5.00;;;;;;;6.72;61.48;101355.72;5020040;28;20233;-75
2022/04/12 02:27:38;;;;;;;7.80;5.23;;;;;;;6.37;62.06;101360.50;5021260;28;20175;-76
2022/04/12 02:30:05;;;;;;;8.37;5.33;;;;;;;6.94;60.88;101358.16;5020482;28;20174;-76
2022/04/12 02:32:32;;;;;;;10.30;5.10;;;;;;;6.57;62.03;101363.78;5020543;28;20174;-74
2022/04/12 02:35:00;;;;;;;5.73;4.93;;;;;;;6.32;61.82;101362.03;5021214;28;20838;-79
2022/04/12 02:37:26;;;;;;;8.90;5.70;;;;;;;6.33;62.46;101373.25;5023403;28;20421;-77
2022/04/12 02:39:51;;;;;;;9.07;5.40;;;;;;;6.46;61.72;101372.03;5022019;28;20469;-77
2022/04/12 02:42:17;;;;;;;7.07;5.03;;;;;;;6.60;61.55;101363.03;5022275;28;20258;-76
2022/04/12 02:44:42;;;;;;;8.00;5.17;;;;;;;6.66;61.46;101354.63;5020832;28;20171;-78
2022/04/12 02:47:07;;;;;;;7.53;5.03;;;;;;;6.92;60.40;101360.69;5020892;28;20266;-79
2022/04/12 02:49:33;;;;;;;6.80;5.30;;;;;;;6.54;60.99;101355.06;5021699;28;20175;-78
2022/04/12 02:51:58;;;;;;;7.50;5.07;;;;;;;6.09;61.64;101357.69;5020497;28;20582;-78
2022/04/12 02:54:23;;;;;;;9.20;5.13;;;;;;;6.88;60.30;101354.50;5021065;28;20175;-77
2022/04/12 02:56:49;;;;;;;7.40;5.20;;;;;;;6.73;61.01;101352.28;5021321;28;20305;-77
2022/04/12 02:59:14;;;;;;;7.30;5.50;;;;;;;6.16;62.26;101349.34;5020603;28;20270;-79
2022/04/12 03:01:39;;;;;;;6.37;5.77;;;;;;;6.69;61.01;101352.13;5020413;28;20218;-77
2022/04/12 03:04:05;;;;;;;7.27;5.50;;;;;;;5.81;61.66;101359.19;5020411;28;20223;-79
2022/04/12 03:06:30;;;;;;;6.87;5.60;;;;;;;5.97;62.65;101355.50;5020551;28;20175;-77
2022/04/12 03:08:55;;;;;;;7.30;5.23;;;;;;;6.62;60.65;101360.50;5020110;28;20175;-78
2022/04/12 03:11:21;;;;;;;8.00;5.73;;;;;;;6.64;61.08;101349.34;5020094;28;20229;-77
2022/04/12 03:13:46;;;;;;;6.30;5.00;;;;;;;6.03;62.15;101360.94;5020642;28;20171;-77
2022/04/12 03:16:12;;;;;;;5.63;5.03;;;;;;;6.60;60.74;101344.03;5021107;28;20171;-77
2022/04/12 03:18:37;;;;;;;6.27;5.30;;;;;;;6.64;59.92;101348.47;5020777;28;20187;-77
2022/04/12 03:21:03;;;;;;;7.73;5.03;;;;;;;6.14;61.30;101358.75;5019956;28;20210;-77
2022/04/12 03:23:28;;;;;;;8.27;5.57;;;;;;;6.54;61.68;101360.22;5020488;28;20224;-76
2022/04/12 03:25:53;;;;;;;5.50;4.97;;;;;;;5.75;62.75;101365.03;5019920;28;20175;-77
2022/04/12 03:28:18;;;;;;;6.13;4.63;;;;;;;6.38;61.58;101362.25;5020140;28;20229;-77
2022/04/12 03:30:44;;;;;;;12.10;5.53;;;;;;;5.83;62.44;101365.31;5020111;28;20174;-76
2022/04/12 03:33:09;;;;;;;9.00;5.70;;;;;;;6.60;60.36;101357.84;5019503;28;20436;-78
2022/04/12 03:35:35;;;;;;;6.93;5.17;;;;;;;6.36;62.00;101365.59;5019616;28;20190;-78
2022/04/12 03:38:01;;;;;;;7.03;5.40;;;;;;;6.64;60.84;101359.72;5020142;28;20197;-77
2022/04/12 03:40:30;;;;;;;6.03;5.07;;;;;;;6.07;60.94;101355.03;5019916;28;20214;-78
2022/04/12 03:42:56;;;;;;;6.27;5.20;;;;;;;6.63;61.03;101359.66;5019487;28;20418;-75
2022/04/12 03:45:21;;;;;;;6.30;5.70;;;;;;;6.30;61.54;101355.91;5019874;28;20477;-79
2022/04/12 03:47:47;;;;;;;8.37;6.00;;;;;;;6.35;61.43;101348.31;5019750;28;20175;-78
2022/04/12 03:50:12;;;;;;;9.53;5.30;;;;;;;6.61;60.51;101343.19;5019521;28;20175;-79
2022/04/12 03:52:37;;;;;;;7.40;5.77;;;;;;;6.63;60.14;101347.63;5019956;28;20171;-77
2022/04/12 03:55:04;;;;;;;8.10;5.57;;;;;;;6.69;60.95;101344.34;5019554;28;20182;-77
2022/04/12 03:57:30;;;;;;;6.63;5.20;;;;;;;6.53;61.01;101343.78;5019349;28;20260;-77
2022/04/12 03:59:56;;;;;;;8.33;5.73;;;;;;;6.45;61.41;101344.34;5018875;28;20845;-78
2022/04/12 04:02:21;;;;;;;6.10;5.50;;;;;;;6.27;61.64;101345.44;5018902;28;20179;-78
2022/04/12 04:04:46;;;;;;;6.40;5.80;;;;;;;6.65;60.38;101335.56;5019275;28;20216;-78
2022/04/12 04:07:12;;;;;;;6.43;5.27;;;;;;;6.35;61.10;101336.25;5019975;28;20537;-78
2022/04/12 04:09:37;;;;;;;6.83;5.80;;;;;;;6.34;61.10;101342.25;5019679;28;20174;-79
2022/04/12 04:12:03;;;;;;;6.67;5.63;;;;;;;6.23;60.63;101340.97;5018433;28;20544;-76
2022/04/12 04:14:31;;;;;;;9.73;6.00;;;;;;;6.50;60.43;101342.81;5019279;28;20159;-76
2022/04/12 04:16:57;;;;;;;6.20;5.30;;;;;;;6.07;61.85;101345.59;5018807;28;20559;-77
2022/04/12 04:19:22;;;;;;;5.57;4.70;;;;;;;6.06;61.14;101340.34;5018062;28;20418;-77
2022/04/12 04:21:48;;;;;;;7.30;5.50;;;;;;;6.18;61.12;101346.00;5019367;28;20185;-77
2022/04/12 04:24:13;;;;;;;9.93;5.87;;;;;;;6.33;60.51;101331.84;5018865;28;20178;-77
2022/04/12 04:26:39;;;;;;;6.87;5.10;;;;;;;6.80;59.54;101336.94;5018761;28;20201;-78
2022/04/12 04:29:05;;;;;;;8.30;5.60;;;;;;;6.56;60.01;101340.44;5019278;28;20163;-76
2022/04/12 04:31:30;;;;;;;6.33;5.73;;;;;;;6.19;60.99;101336.50;5017357;28;20672;-77
2022/04/12 04:33:56;;;;;;;6.03;5.30;;;;;;;6.67;60.43;101341.72;5018378;28;20426;-77
2022/04/12 04:36:21;;;;;;;6.27;5.70;;;;;;;6.20;61.69;101327.94;5018579;28;20171;-79
2022/04/12 04:38:47;;;;;;;7.53;5.40;;;;;;;5.72;61.49;101333.84;5018507;28;20253;-77
2022/04/12 04:41:12;;;;;;;8.33;6.13;;;;;;;6.39;60.74;101322.56;5018548;28;20460;-76
2022/04/12 04:43:37;;;;;;;6.97;5.57;;;;;;;6.35;59.97;101323.28;5019142;28;20179;-77
2022/04/12 04:46:03;;;;;;;5.63;5.00;;;;;;;6.53;60.59;101335.16;5018676;28;20167;-76
2022/04/12 04:48:28;;;;;;;7.87;5.90;;;;;;;6.73;59.10;101339.31;5018481;28;20225;-76
2022/04/12 04:50:53;;;;;;;6.60;5.43;;;;;;;6.91;59.07;101340.78;5018946;28;20162;-78
2022/04/12 04:53:19;;;;;;;6.47;5.50;;;;;;;7.10;58.94;101341.41;5018599;28;20183;-77
2022/04/12 04:55:44;;;;;;;5.53;5.03;;;;;;;7.08;59.63;101343.97;5018191;28;20239;-76
2022/04/12 04:58:10;;;;;;;6.53;5.90;;;;;;;7.29;58.94;101348.09;5019333;28;20179;-80
2022/04/12 05:00:35;;;;;;;5.90;5.10;;;;;;;6.95;58.22;101346.97;5019279;28;20211;-78
2022/04/12 05:03:02;;;;;;;7.13;5.73;;;;;;;7.24;57.62;101350.53;5018999;28;20223;-78
2022/04/12 05:05:28;;;;;;;6.70;5.43;;;;;;;6.64;58.61;101351.94;5018843;28;20237;-67
2022/04/12 05:07:55;;;;;;;6.37;5.67;;;;;;;6.39;59.06;101361.44;5017342;28;20437;-70
2022/04/12 05:10:26;;;;;;;8.90;5.93;;;;;;;6.95;59.72;101355.59;5018120;28;20487;-72
2022/04/12 05:12:51;;;;;;;6.27;5.67;;;;;;;7.39;57.79;101352.75;5018160;28;20421;-72
2022/04/12 05:15:17;;;;;;;6.20;5.60;;;;;;;6.67;58.28;101356.34;5017926;28;20429;-73
2022/04/12 05:17:51;;;;;;;6.30;5.40;;;;;;;7.04;58.32;101360.25;5018035;28;20182;-72
2022/04/12 05:20:17;;;;;;;7.17;5.50;;;;;;;6.56;57.91;101371.50;5018181;28;20215;-71
2022/04/12 05:22:42;;;;;;;6.80;5.73;;;;;;;7.14;56.84;101369.22;5017903;28;20525;-72
2022/04/12 05:25:08;;;;;;;7.23;5.70;;;;;;;7.19;58.25;101367.66;5018029;28;20838;-73
2022/04/12 05:27:35;;;;;;;9.97;5.70;;;;;;;6.86;57.34;101378.63;5017829;28;20266;-74
2022/04/12 05:30:01;;;;;;;6.13;5.60;;;;;;;7.63;57.22;101365.66;5018033;28;20555;-71
2022/04/12 05:32:26;;;;;;;7.23;6.10;;;;;;;6.76;57.65;101384.31;5018124;28;20449;-71
2022/04/12 05:34:52;;;;;;;6.83;5.87;;;;;;;7.45;56.63;101383.19;5017841;28;20520;-72
2022/04/12 05:37:17;;;;;;;6.43;5.27;;;;;;;7.99;54.75;101390.09;5017715;28;20245;-73
2022/04/12 05:39:43;;;;;;;8.97;5.67;;;;;;;8.18;55.33;101391.53;5018162;28;20282;-72
2022/04/12 05:42:08;;;;;;;8.63;5.50;;;;;;;8.03;55.01;101395.41;5018738;28;20596;-72
2022/04/12 05:44:34;;;;;;;8.53;6.80;;;;;;;7.85;54.77;101393.16;5021289;28;20422;-72
2022/04/12 05:47:03;;;;;;;10.50;5.90;;;;;;;8.14;54.45;101389.69;5021642;28;20167;-73
2022/04/12 05:49:29;;;;;;;7.40;5.90;;;;;;;8.07;54.87;101399.00;5021245;28;20190;-71
2022/04/12 05:51:55;;;;;;;8.30;6.20;;;;;;;8.36;53.97;101386.88;5021036;28;20397;-71
2022/04/12 05:54:20;;;;;;;6.93;6.03;;;;;;;8.25;54.15;101390.88;5020681;28;20265;-72
2022/04/12 05:56:46;;;;;;;9.47;6.20;;;;;;;8.98;52.51;101388.59;5020916;28;20425;-73
2022/04/12 05:59:11;;;;;;;7.77;5.83;;;;;;;7.92;55.15;101399.41;5021014;28;20170;-71
2022/04/12 06:01:38;;;;;;;7.00;6.30;;;;;;;8.36;54.23;101388.59;5020798;28;20230;-70
2022/04/12 06:04:04;;;;;;;8.30;6.67;;;;;;;8.33;54.10;101381.56;5020356;28;20226;-72
2022/04/12 06:06:29;;;;;;;11.37;5.90;;;;;;;8.76;52.48;101380.22;5019932;28;20513;-72
2022/04/12 06:08:54;;;;;;;7.87;6.27;;;;;;;7.91;54.04;101382.97;5020062;28;20525;-72
2022/04/12 06:11:20;;;;;;;7.10;6.40;;;;;;;7.75;54.35;101376.41;5019992;28;20194;-72
2022/04/12 06:13:45;;;;;;;8.73;5.87;;;;;;;7.35;55.94;101369.94;5022283;28;20243;-72
2022/04/12 06:16:11;;;;;;;8.93;8.13;;;;;;;8.64;53.86;101361.69;5023271;28;20182;-73
2022/04/12 06:18:36;;;;;;;7.43;6.47;;;;;;;8.02;53.42;101359.03;5021295;28;20175;-71
2022/04/12 06:21:02;;;;;;;7.20;6.00;;;;;;;8.24;53.60;101360.53;5018934;28;20216;-71
2022/04/12 06:23:28;;;;;;;6.33;5.63;;;;;;;8.22;53.58;101354.41;5020852;28;20206;-71
2022/04/12 06:25:53;;;;;;;7.97;7.17;;;;;;;8.59;53.53;101353.78;5020685;28;20178;-72
2022/04/12 06:28:19;;;;;;;9.90;6.00;;;;;;;8.66;52.25;101360.03;5018973;28;20434;-71
2022/04/12 06:30:44;;;;;;;10.30;6.20;;;;;;;7.47;54.55;101363.38;5022920;28;20179;-72
2022/04/12 06:33:10;;;;;;;7.77;6.40;;;;;;;7.92;54.04;101360.47;5032710;28;20461;-72
2022/04/12 06:35:35;;;;;;;9.83;6.37;;;;;;;8.57;52.28;101354.59;5032830;28;20556;-71
2022/04/12 06:38:02;;;;;;;7.03;6.10;;;;;;;8.83;52.37;101359.59;5033492;28;20233;-72
2022/04/12 06:40:27;;;;;;;7.20;6.50;;;;;;;8.51;52.14;101364.78;5027272;28;20298;-73
2022/04/12 06:42:53;;;;;;;7.83;6.77;;;;;;;9.24;51.40;101362.38;5019542;28;20483;-72
2022/04/12 06:45:22;;;;;;;8.67;6.60;;;;;;;8.20;52.87;101374.25;5018262;28;20217;-71
2022/04/12 06:47:58;;;;;;;7.80;6.63;;;;;;;8.26;52.04;101369.25;5017835;28;20178;-72
2022/04/12 06:50:25;;;;;;;10.17;6.00;;;;;;;8.69;51.53;101370.50;5018589;28;20429;-68
2022/04/12 06:52:51;;;;;;;6.17;5.57;;;;;;;8.39;51.84;101381.78;5018225;28;20426;-69
2022/04/12 06:55:16;;;;;;;7.10;6.40;;;;;;;8.84;52.52;101379.56;5018980;28;20851;-70
2022/04/12 06:57:45;;;;;;;8.13;6.50;;;;;;;8.81;51.72;101379.47;5019264;28;20504;-69
2022/04/12 07:00:11;;;;;;;6.50;5.90;;;;;;;8.93;50.34;101369.44;5019140;28;20206;-74
2022/04/12 07:02:36;;;;;;;7.97;6.13;;;;;;;8.36;52.05;101376.50;5019554;28;20493;-74
2022/04/12 07:05:03;;;;;;;6.10;5.50;;;;;;;8.45;51.12;101368.09;5020276;28;20414;-76
2022/04/12 07:07:28;;;;;;;6.83;6.10;;;;;;;7.99;51.88;101384.91;5019075;28;20179;-74
2022/04/12 07:09:57;;;;;;;6.80;6.10;;;;;;;8.26;51.26;101384.84;5019968;28;20418;-74
2022/04/12 07:12:23;;;;;;;6.03;5.43;;;;;;;8.89;49.95;101377.94;5018942;28;20187;-81
2022/04/12 07:14:48;;;;;;;7.47;5.63;;;;;;;8.91;49.33;101402.28;5019812;28;20422;-76
2022/04/12 07:17:14;;;;;;;7.90;6.13;;;;;;;9.56;47.78;101394.41;5019441;28;20404;-75
2022/04/12 07:19:39;;;;;;;7.73;6.07;;;;;;;9.14;48.10;101409.84;5019902;28;20249;-76
2022/04/12 07:22:04;;;;;;;7.20;5.73;;;;;;;9.76;47.35;101388.81;5019468;28;20179;-77
2022/04/12 07:24:30;;;;;;;8.60;5.83;;;;;;;9.92;47.48;101385.72;5019566;28;20175;-77
2022/04/12 07:26:56;;;;;;;6.67;5.83;;;;;;;9.94;46.34;101394.47;5020213;28;20186;-73
2022/04/12 07:29:21;;;;;;;8.67;6.67;;;;;;;10.00;46.46;101400.63;5019559;28;20494;-72
2022/04/12 07:31:46;;;;;;;9.60;6.70;;;;;;;9.85;47.26;101391.63;5019325;28;20194;-72
2022/04/12 07:34:12;;;;;;;9.63;6.80;;;;;;;10.31;46.15;101391.78;5019519;28;20170;-72
2022/04/12 07:36:39;;;;;;;8.90;6.13;;;;;;;10.54;45.09;101402.72;5019224;28;20441;-72
2022/04/12 07:39:09;;;;;;;11.10;6.50;;;;;;;11.20;43.55;101399.59;5019275;28;20171;-73
2022/04/12 07:41:34;;;;;;;8.53;6.37;;;;;;;11.61;42.52;101399.44;5019419;28;20531;-76
2022/04/12 07:44:00;;;;;;;8.40;6.47;;;;;;;11.09;43.52;101404.63;5019232;28;20512;-73
2022/04/12 07:46:25;;;;;;;6.30;5.70;;;;;;;11.97;41.85;101406.06;5019070;28;20201;-70
2022/04/12 07:48:50;;;;;;;6.83;6.20;;;;;;;12.03;41.43;101395.72;5019614;28;20174;-69
2022/04/12 07:51:16;;;;;;;6.90;5.73;;;;;;;12.04;41.30;101404.44;5019233;28;20434;-70
2022/04/12 07:53:42;;;;;;;6.97;6.23;;;;;;;12.53;40.54;101398.97;5018995;28;20182;-71
2022/04/12 07:56:07;;;;;;;6.73;6.10;;;;;;;12.43;40.41;101388.41;5019605;28;20666;-73
2022/04/12 07:58:33;;;;;;;7.60;5.53;;;;;;;13.76;38.43;101388.81;5019097;28;20174;-74
2022/04/12 08:00:59;;;;;;;7.07;6.37;;;;;;;12.06;41.06;101392.28;5018638;28;20238;-75
2022/04/12 08:03:24;;;;;;;9.40;6.77;;;;;;;12.70;39.14;101381.72;5018296;28;20281;-75
2022/04/12 08:05:53;;;;;;;11.20;6.40;;;;;;;13.43;38.31;101375.47;5019201;28;20396;-76
2022/04/12 08:08:19;;;;;;;6.60;5.97;;;;;;;12.74;39.64;101382.66;5022205;28;20254;-76
2022/04/12 08:10:45;;;;;;;7.13;6.00;;;;;;;12.80;39.81;101375.75;5023538;28;20671;-74
2022/04/12 08:13:13;;;;;;;7.03;6.33;;;;;;;12.56;39.92;101368.50;5022708;28;20392;-74
2022/04/12 08:15:38;;;;;;;6.63;5.73;;;;;;;12.48;40.30;101364.06;5020920;28;20448;-73
2022/04/12 08:18:08;;;;;;;6.73;6.13;;;;;;;12.08;40.95;101372.25;5018713;28;20404;-73
2022/04/12 08:20:33;;;;;;;7.43;5.87;;;;;;;12.50;39.44;101364.94;5018345;28;20237;-72
2022/04/12 08:22:59;;;;;;;7.37;5.80;;;;;;;11.86;40.62;101353.63;5018858;28;20418;-74
2022/04/12 08:25:25;;;;;;;6.90;6.20;;;;;;;13.61;37.28;101355.53;5017830;28;20201;-74
2022/04/12 08:27:50;;;;;;;6.03;5.43;;;;;;;13.93;36.84;101349.63;5018473;28;20202;-71
2022/04/12 08:30:16;;;;;;;7.00;6.00;;;;;;;15.25;34.89;101350.88;5018983;28;20667;-73
2022/04/12 08:32:41;;;;;;;5.83;5.30;;;;;;;12.21;39.08;101371.56;5018002;28;20175;-74
2022/04/12 08:35:07;;;;;;;7.30;6.00;;;;;;;13.51;36.66;101345.88;5017485;28;20228;-72
2022/04/12 08:37:33;;;;;;;5.60;5.03;;;;;;;12.87;37.16;101352.28;5018515;28;20237;-71
2022/04/12 08:39:58;;;;;;;9.53;5.80;;;;;;;13.85;35.99;101356.56;5018270;28;20474;-72
2022/04/12 08:42:23;;;;;;;11.90;6.27;;;;;;;15.07;34.65;101352.66;5024659;28;20197;-71
2022/04/12 08:44:49;;;;;;;9.20;6.70;;;;;;;15.80;33.37;101352.63;5034111;28;20223;-71
2022/04/12 08:47:18;;;;;;;7.53;5.63;;;;;;;15.26;33.57;101352.66;5018128;28;20194;-71
2022/04/12 08:49:43;;;;;;;5.93;5.37;;;;;;;17.11;31.33;101330.94;5027413;28;20451;-71
2022/04/12 08:52:11;;;;;;;6.30;5.70;;;;;;;14.91;33.97;101349.13;5038337;28;20413;-70
2022/04/12 08:54:37;;;;;;;7.03;5.93;;;;;;;14.18;35.21;101349.75;5037923;28;20178;-72
2022/04/12 08:57:03;;;;;;;6.80;6.10;;;;;;;15.64;33.63;101336.88;5037787;28;20417;-71
2022/04/12 08:59:28;;;;;;;6.90;6.00;;;;;;;15.44;33.17;101334.25;5018714;28;20413;-72
2022/04/12 09:01:54;;;;;;;6.93;6.20;;;;;;;16.06;32.10;101323.63;5017795;28;20193;-70
2022/04/12 09:04:20;;;;;;;7.83;6.00;;;;;;;15.29;33.19;101339.53;5017830;28;20301;-70
2022/04/12 09:06:56;;;;;;;8.63;6.10;;;;;;;16.82;31.51;101328.50;5018268;28;20420;-71
2022/04/12 09:09:23;;;;;;;5.93;5.43;;;;;;;17.08;31.19;101322.19;5018542;28;20167;-71
2022/04/12 09:12:03;;;;;;;6.40;5.80;;;;;;;17.14;31.21;101317.75;5018311;28;20417;-71
2022/04/12 09:14:46;;;;;;;7.40;6.30;;;;;;;15.27;33.58;101317.63;5020195;28;20410;-69
2022/04/12 09:17:15;;;;;;;6.87;6.17;;;;;;;17.84;29.76;101317.94;5026822;28;20761;-70
2022/04/12 09:19:44;;;;;;;8.30;6.37;;;;;;;15.91;32.12;101331.56;5021592;28;20441;-71
2022/04/12 09:22:23;;;;;;;7.60;6.27;;;;;;;16.73;31.54;101323.28;5021592;28;20428;-72
2022/04/12 09:25:01;;;;;;;7.67;5.80;;;;;;;16.78;31.42;101326.78;5021635;28;20516;-71
2022/04/12 09:27:33;;;;;;;9.63;6.80;;;;;;;17.04;30.30;101321.34;5021623;28;20421;-72
2022/04/12 09:30:03;;;;;;;7.63;6.30;;;;;;;17.30;29.96;101318.47;5021546;28;20421;-71
2022/04/12 09:32:38;;;;;;;6.63;5.90;;;;;;;17.60;29.99;101311.19;5021486;28;20516;-73
2022/04/12 09:35:04;;;;;;;7.50;6.00;;;;;;;17.22;30.90;101316.81;5021483;28;20821;-72
2022/04/12 09:37:32;;;;;;;6.87;5.87;;;;;;;17.13;31.33;101310.72;5021301;28;20874;-72
2022/04/12 09:40:00;;;;;;;8.50;6.20;;;;;;;16.19;31.86;101319.19;5021353;28;20464;-73
2022/04/12 09:42:44;;;;;;;9.00;6.57;;;;;;;16.53;31.27;101319.00;5021112;28;20446;-73
2022/04/12 09:45:13;;;;;;;7.40;6.70;;;;;;;18.21;29.55;101298.16;5001468;28;20426;-72
2022/04/12 09:47:39;;;;;;;7.60;6.53;;;;;;;16.67;31.37;101303.16;5001371;28;20419;-74
2022/04/12 09:50:05;;;;;;;8.40;6.67;;;;;;;16.42;31.38;101312.94;5030219;28;20463;-74
2022/04/12 09:52:31;;;;;;;8.60;6.73;;;;;;;15.54;33.54;101310.59;5040651;28;20405;-75
2022/04/12 09:54:57;;;;;;;9.50;6.90;;;;;;;16.47;32.16;101309.41;5041351;28;20416;-75
2022/04/12 09:57:23;;;;;;;10.33;7.13;;;;;;;16.61;31.92;101316.34;5040753;28;20261;-75
2022/04/12 09:59:49;;;;;;;7.00;6.30;;;;;;;15.71;32.87;101311.44;5040724;28;20162;-75
2022/04/12 10:02:15;;;;;;;7.83;7.10;;;;;;;15.83;32.98;101305.31;5040716;28;20490;-74
2022/04/12 10:04:42;;;;;;;9.97;7.27;;;;;;;15.51;33.19;101303.59;5040850;28;20263;-73
2022/04/12 10:07:10;;;;;;;8.23;6.53;;;;;;;14.44;35.24;101300.88;5040648;28;20184;-71
2022/04/12 10:09:36;;;;;;;7.47;6.77;;;;;;;14.42;35.31;101291.25;5040710;28;20391;-72
2022/04/12 10:12:03;;;;;;;8.50;7.00;;;;;;;14.61;35.27;101300.94;5040681;28;20417;-71
2022/04/12 10:14:30;;;;;;;8.87;6.80;;;;;;;14.68;35.62;101299.22;5040724;28;20424;-70
2022/04/12 10:16:56;;;;;;;7.30;6.63;;;;;;;14.63;35.81;101309.69;5030344;28;20571;-70
2022/04/12 10:19:22;;;;;;;9.50;7.10;;;;;;;15.28;34.54;101301.88;5020784;28;20408;-70
2022/04/12 10:21:48;;;;;;;7.13;6.50;;;;;;;15.25;34.56;101303.59;5020832;28;20443;-72
2022/04/12 10:24:13;;;;;;;7.70;7.07;;;;;;;14.94;35.24;101291.38;5020501;28;20707;-73
2022/04/12 10:26:40;;;;;;;8.27;7.40;;;;;;;15.26;35.02;101289.59;5020544;28;20179;-70
2022/04/12 10:29:06;;;;;;;11.83;7.10;;;;;;;14.47;35.98;101295.63;5018942;28;20171;-73
2022/04/12 10:31:32;;;;;;;8.27;7.40;;;;;;;14.55;36.23;101277.28;5020313;28;20438;-73
2022/04/12 10:34:09;;;;;;;8.40;7.43;;;;;;;14.05;36.43;101281.53;5020460;28;20505;-72
2022/04/12 10:36:53;;;;;;;9.23;7.00;;;;;;;14.33;36.69;101276.38;5019575;28;20428;-73
2022/04/12 10:39:21;;;;;;;8.27;7.03;;;;;;;14.95;35.66;101274.75;5020150;28;20384;-71
2022/04/12 10:41:49;;;;;;;8.10;7.27;;;;;;;14.78;35.39;101258.13;5019774;28;20729;-72
2022/04/12 10:44:21;;;;;;;10.73;7.30;;;;;;;16.55;33.18;101245.31;5019660;28;20427;-73
2022/04/12 10:46:48;;;;;;;10.20;8.10;;;;;;;16.81;32.37;101245.13;5020207;28;20407;-71
2022/04/12 10:49:20;;;;;;;10.07;7.37;;;;;;;17.01;31.97;101247.63;5027492;28;20429;-71
2022/04/12 10:51:48;;;;;;;9.10;7.23;;;;;;;16.87;31.97;101249.47;5039966;28;20428;-71
2022/04/12 10:54:31;;;;;;;8.43;7.63;;;;;;;17.19;31.45;101229.91;5040037;28;20582;-70
2022/04/12 10:57:18;;;;;;;8.17;7.33;;;;;;;17.75;30.67;101219.59;5039817;28;20413;-70
2022/04/12 10:59:49;;;;;;;12.60;7.77;;;;;;;18.47;29.86;101215.13;5039793;28;20404;-73
2022/04/12 11:02:14;;;;;;;8.67;7.60;;;;;;;18.39;29.24;101220.50;5038544;28;20437;-72
2022/04/12 11:04:40;;;;;;;8.90;7.93;;;;;;;19.08;28.49;101215.88;5039376;28;20420;-73
2022/04/12 11:07:09;;;;;;;9.27;8.37;;;;;;;19.23;28.56;101216.47;5039827;28;20257;-73
2022/04/12 11:09:34;;;;;;;8.70;7.47;;;;;;;18.17;30.51;101218.19;5039455;28;20211;-71
2022/04/12 11:12:03;;;;;;;8.60;7.80;;;;;;;18.67;29.13;101220.06;5039216;28;20794;-71
2022/04/12 11:14:33;;;;;;;8.80;7.90;;;;;;;17.90;30.55;101224.69;5039689;28;20177;-71
2022/04/12 11:17:17;;;;;;;9.10;8.20;;;;;;;17.89;30.70;101220.28;5028595;28;20421;-71
2022/04/12 11:19:44;;;;;;;8.20;7.40;;;;;;;16.60;31.91;101222.47;5019518;28;20417;-71
2022/04/12 11:22:14;;;;;;;9.60;8.60;;;;;;;18.05;30.32;101202.53;5019223;28;20438;-72
2022/04/12 11:24:40;;;;;;;9.17;8.27;;;;;;;17.27;31.28;101199.06;5019424;28;20426;-72
2022/04/12 11:27:10;;;;;;;8.60;7.80;;;;;;;17.54;31.25;101189.09;5019277;28;20406;-72
2022/04/12 11:29:38;;;;;;;11.40;8.30;;;;;;;16.68;32.30;101196.94;5019545;28;20421;-71